Friday, October 19, 2018, 6:57 PM EDT
Back to Local

KIDI, Indiana / Stewart Field

Location: Indiana, PA, United States Lat: 40.633
Local Time: 6:57 PM EDT (22:57 GMT) Lon: -79.1
Time Zone: US/Eastern Elev: 1407 ft

Show me the last for .
Show Coded

Time T Td Feel RH Dir Speed Gust Alt SLP Vis Weather Sky Remarks
2018-10-19 18:33 54 37 - 54 240° 5 - 30.01 - 10 FEW110 None
2018-10-19 18:15 55 37 - 50 200° 6 - 30.00 - 10 FEW120 None
2018-10-19 17:55 55 37 - 50 250° 3 - 30.03 - 10 CLR None
2018-10-19 17:35 55 37 - 50 - Calm - 30.03 - 10 CLR None
2018-10-19 17:15 57 34 - 41 250° 6 - 30.04 - 10 CLR None
2018-10-19 16:55 57 34 - 41 260° 5 - 30.04 - 10 CLR None
2018-10-19 16:35 59 34 - 38 230° 7 - 30.05 - 10 CLR None
2018-10-19 16:15 59 36 - 41 230° 7 - 30.05 - 10 CLR None
2018-10-19 15:55 57 34 - 41 260° 8 - 30.07 - 10 CLR None
2018-10-19 15:35 59 36 - 41 200° 9 - 30.07 - 10 CLR None
2018-10-19 15:15 59 36 - 41 210° 7 - 30.08 - 10 CLR None
2018-10-19 14:55 57 36 - 44 240° 8 15 30.10 - 10 CLR None
2018-10-19 14:35 57 36 - 44 200° 8 - 30.12 - 10 CLR None
2018-10-19 14:15 55 36 - 47 230° 9 - 30.14 - 10 CLR None
2018-10-19 13:55 54 36 - 50 210° 7 - 30.15 - 10 CLR None
2018-10-19 13:35 52 34 - 50 220° 7 14 30.18 - 10 CLR None
2018-10-19 13:15 52 36 - 53 220° 8 - 30.20 - 10 CLR None
2018-10-19 12:55 50 36 47 57 230° 7 - 30.22 - 10 CLR None
2018-10-19 12:35 50 34 46 53 250° 6 12 30.24 - 10 CLR None
2018-10-19 12:15 48 34 43 57 210° 8 14 30.25 - 10 CLR None
2018-10-19 11:55 48 34 46 57 Variable 6 - 30.27 - 10 CLR None
2018-10-19 11:35 48 34 45 57 230° 8 - 30.28 - 10 CLR None
2018-10-19 11:15 46 36 43 65 260° 7 - 30.30 - 10 CLR None
2018-10-19 10:55 46 36 45 65 Variable 3 - 30.30 - 10 CLR None
2018-10-19 10:35 45 34 41 65 230° 6 - 30.32 - 10 CLR None
2018-10-19 10:15 45 36 41 70 220° 7 - 30.32 - 10 CLR None
2018-10-19 09:55 43 34 39 70 230° 6 - 30.32 - 10 CLR None
2018-10-19 09:35 41 34 37 75 240° 6 - 30.33 - 10 CLR None
2018-10-19 09:15 39 34 37 80 Variable 3 - 30.34 - 10 CLR None
2018-10-19 08:55 37 34 - 86 - Calm - 30.34 - 10 CLR None
2018-10-19 08:35 36 32 - 86 - Calm - 30.34 - 10 CLR None
2018-10-19 08:15 36 32 - 86 - Calm - 30.34 - 10 CLR None
2018-10-19 07:55 34 32 - 93 - Calm - 30.34 - 10 CLR None
2018-10-19 07:35 32 30 - 92 - Calm - 30.35 - 10 CLR None
2018-10-19 07:15 34 32 - 93 - Calm - 30.36 - 10 CLR None
2018-10-19 06:55 34 32 - 93 - Calm - 30.36 - 10 CLR None
2018-10-19 06:35 34 32 - 93 - Calm - 30.36 - 10 CLR None
2018-10-19 06:15 34 32 - 93 - Calm - 30.37 - 10 CLR None
2018-10-19 05:55 34 32 - 93 - Calm - 30.37 - 10 CLR None
2018-10-19 05:15 34 32 - 93 - Calm - 30.37 - 10 CLR None
2018-10-19 04:55 34 32 - 93 - Calm - 30.37 - 7 CLR None
2018-10-19 04:35 34 32 - 93 - Calm - 30.37 - 6 BR CLR None
2018-10-19 04:15 34 32 - 93 - Calm - 30.37 - 10 CLR None
2018-10-19 03:55 34 32 - 93 - Calm - 30.37 - 10 CLR None
2018-10-19 03:15 34 32 - 93 - Calm - 30.38 - 10 CLR None
2018-10-19 02:55 34 32 - 93 - Calm - 30.39 - 10 CLR None
2018-10-19 02:35 34 32 - 93 - Calm - 30.39 - 10 CLR None
2018-10-19 02:15 34 32 - 93 - Calm - 30.39 - 10 CLR None
2018-10-19 01:55 34 32 - 93 - Calm - 30.39 - 10 CLR None
2018-10-19 01:15 34 32 - 93 - Calm - 30.39 - 10 CLR None
2018-10-19 00:55 34 32 - 93 - Calm - 30.39 - 10 CLR None
2018-10-19 00:35 34 32 - 93 - Calm - 30.40 - 10 CLR None
2018-10-19 00:15 36 32 - 86 - Calm - 30.40 - 10 CLR None
2018-10-18 23:55 36 32 - 86 - Calm - 30.40 - 10 CLR None
2018-10-18 23:35 36 32 - 86 - Calm - 30.40 - 10 CLR None
2018-10-18 23:15 36 32 - 86 - Calm - 30.41 - 10 CLR None
2018-10-18 22:55 36 32 - 86 - Calm - 30.41 - 10 CLR None
2018-10-18 22:35 36 32 - 86 - Calm - 30.41 - 10 CLR None
2018-10-18 22:15 36 32 - 86 - Calm - 30.41 - 10 CLR None
2018-10-18 21:55 36 34 - 93 - Calm - 30.41 - 10 CLR None
2018-10-18 21:35 36 34 - 93 - Calm - 30.41 - 10 CLR None
2018-10-18 21:15 37 34 - 86 - Calm - 30.41 - 10 CLR None
2018-10-18 20:55 37 34 - 86 - Calm - 30.42 - 10 CLR None
2018-10-18 20:35 37 34 - 86 - Calm - 30.42 - 10 CLR None
2018-10-18 20:15 39 34 - 80 - Calm - 30.42 - 10 CLR None
2018-10-18 19:55 41 32 - 70 - Calm - 30.42 - 10 CLR None
2018-10-18 19:35 41 32 - 70 - Calm - 30.43 - 10 CLR None
2018-10-18 19:15 43 32 - 65 - Calm - 30.43 - 10 CLR None

Support USWX by starting your Amazon purchase here.